createdAt,value
2023-04-21T00:00:10.002Z,2.63
2023-04-21T00:02:41.373Z,2.77
2023-04-21T00:05:14.089Z,2.67
2023-04-21T00:07:41.664Z,3.73
2023-04-21T00:10:10.605Z,2.67
2023-04-21T00:12:38.322Z,3.37
2023-04-21T00:15:06.062Z,4.40
2023-04-21T00:17:33.280Z,2.63
2023-04-21T00:20:00.518Z,4.67
2023-04-21T00:22:27.750Z,2.70
2023-04-21T00:24:54.950Z,2.87
2023-04-21T00:27:22.171Z,3.10
2023-04-21T00:29:49.380Z,2.77
2023-04-21T00:32:16.606Z,2.67
2023-04-21T00:34:43.778Z,2.50
2023-04-21T00:37:11.178Z,2.57
2023-04-21T00:39:38.353Z,2.50
2023-04-21T00:42:05.556Z,2.50
2023-04-21T00:44:32.713Z,2.63
2023-04-21T00:47:00.012Z,2.40
2023-04-21T00:49:27.428Z,2.53
2023-04-21T00:51:55.076Z,2.70
2023-04-21T00:54:24.895Z,3.13
2023-04-21T00:56:52.320Z,2.80
2023-04-21T00:59:19.597Z,2.60
2023-04-21T01:01:46.899Z,2.90
2023-04-21T01:04:14.222Z,3.03
2023-04-21T01:06:42.164Z,2.50
2023-04-21T01:09:09.401Z,3.07
2023-04-21T01:11:36.690Z,2.60
2023-04-21T01:14:04.082Z,2.70
2023-04-21T01:16:32.839Z,3.00
2023-04-21T01:19:01.106Z,2.63
2023-04-21T01:21:29.096Z,2.70
2023-04-21T01:23:56.388Z,2.77
2023-04-21T01:26:23.679Z,2.87
2023-04-21T01:28:51.035Z,3.27
2023-04-21T01:31:18.707Z,3.00
2023-04-21T01:33:46.007Z,3.37
2023-04-21T01:36:13.230Z,2.90
2023-04-21T01:38:41.474Z,3.00
2023-04-21T01:41:08.939Z,3.00
2023-04-21T01:43:37.209Z,2.63
2023-04-21T01:46:05.445Z,3.03
2023-04-21T01:48:32.668Z,3.20
2023-04-21T01:50:59.886Z,3.37
2023-04-21T01:53:27.113Z,2.80
2023-04-21T01:55:54.395Z,3.20
2023-04-21T01:58:21.753Z,3.77
2023-04-21T02:00:49.062Z,2.83
2023-04-21T02:03:16.636Z,3.83
2023-04-21T02:05:43.974Z,3.43
2023-04-21T02:08:11.183Z,2.90
2023-04-21T02:10:38.435Z,2.93
2023-04-21T02:13:05.790Z,4.70
2023-04-21T02:15:33.703Z,2.93
2023-04-21T02:18:00.925Z,2.90
2023-04-21T02:20:28.185Z,2.83
2023-04-21T02:22:55.392Z,3.50
2023-04-21T02:25:22.682Z,2.80
2023-04-21T02:27:49.873Z,3.10
2023-04-21T02:30:17.089Z,2.90
2023-04-21T02:32:44.309Z,3.10
2023-04-21T02:35:11.613Z,2.83
2023-04-21T02:37:38.783Z,4.50
2023-04-21T02:40:06.665Z,3.20
2023-04-21T02:42:34.927Z,4.10
2023-04-21T02:45:02.236Z,2.97
2023-04-21T02:47:29.451Z,3.60
2023-04-21T02:49:56.650Z,2.80
2023-04-21T02:52:24.858Z,2.70
2023-04-21T02:54:52.037Z,4.20
2023-04-21T02:57:19.249Z,3.00
2023-04-21T02:59:46.430Z,3.30
2023-04-21T03:02:13.665Z,2.83
2023-04-21T03:04:40.961Z,2.80
2023-04-21T03:07:13.077Z,4.23
2023-04-21T03:09:40.824Z,3.40
2023-04-21T03:12:08.024Z,3.00
2023-04-21T03:14:35.224Z,3.33
2023-04-21T03:17:02.418Z,2.70
2023-04-21T03:19:29.921Z,3.13
2023-04-21T03:21:57.121Z,2.83
2023-04-21T03:24:24.288Z,3.53
2023-04-21T03:26:51.509Z,3.13
2023-04-21T03:29:19.036Z,6.37
2023-04-21T03:31:46.553Z,3.00
2023-04-21T03:34:13.812Z,3.07
2023-04-21T03:36:41.036Z,3.20
2023-04-21T03:39:20.652Z,2.63
2023-04-21T03:41:48.495Z,3.63
2023-04-21T03:44:15.792Z,2.70
2023-04-21T03:46:42.987Z,4.07
2023-04-21T03:49:10.199Z,3.27
2023-04-21T03:51:37.420Z,2.90
2023-04-21T03:54:04.601Z,3.27
2023-04-21T03:56:31.882Z,2.80
2023-04-21T03:58:59.116Z,2.93
2023-04-21T04:01:26.314Z,3.13
2023-04-21T04:03:53.753Z,2.80
2023-04-21T04:06:21.088Z,3.30
2023-04-21T04:08:48.269Z,2.80
2023-04-21T04:11:15.583Z,2.63
2023-04-21T04:13:42.774Z,3.10
2023-04-21T04:16:10.004Z,3.20
2023-04-21T04:18:37.371Z,3.47
2023-04-21T04:21:07.826Z,2.83
2023-04-21T04:23:37.751Z,3.30
2023-04-21T04:26:05.723Z,2.93
2023-04-21T04:28:33.742Z,2.80
2023-04-21T04:31:01.403Z,3.63
2023-04-21T04:33:28.652Z,2.93
2023-04-21T04:35:55.905Z,3.00
2023-04-21T04:38:23.167Z,2.90
2023-04-21T04:40:57.792Z,4.60
2023-04-21T04:43:28.418Z,3.00
2023-04-21T04:45:55.622Z,3.10
2023-04-21T04:48:22.832Z,3.47
2023-04-21T04:50:50.028Z,2.97
2023-04-21T04:53:17.302Z,2.90
2023-04-21T04:55:44.518Z,2.70
2023-04-21T04:58:11.738Z,3.00
2023-04-21T05:00:39.084Z,2.90
2023-04-21T05:03:06.329Z,3.37
2023-04-21T05:05:33.657Z,4.03
2023-04-21T05:08:00.929Z,2.83
2023-04-21T05:10:28.241Z,3.40
2023-04-21T05:12:55.496Z,3.13
2023-04-21T05:15:23.137Z,5.43
2023-04-21T05:17:50.531Z,4.33
2023-04-21T05:20:17.764Z,2.97
2023-04-21T05:22:45.103Z,5.00
2023-04-21T05:25:15.637Z,2.80
2023-04-21T05:27:43.393Z,3.80
2023-04-21T05:30:10.856Z,2.70
2023-04-21T05:32:38.246Z,2.70
2023-04-21T05:35:05.876Z,2.97
2023-04-21T05:37:33.134Z,2.90
2023-04-21T05:40:00.644Z,2.80
2023-04-21T05:42:27.951Z,2.63
2023-04-21T05:44:55.330Z,2.63
2023-04-21T05:47:22.781Z,2.90
2023-04-21T05:49:53.681Z,3.67
2023-04-21T05:52:22.133Z,3.67
2023-04-21T05:54:49.388Z,2.63
2023-04-21T05:57:17.732Z,2.90
2023-04-21T05:59:45.035Z,3.93
2023-04-21T06:02:12.781Z,3.17
2023-04-21T06:04:40.501Z,3.27
2023-04-21T06:07:09.196Z,2.60
2023-04-21T06:09:36.824Z,2.60
2023-04-21T06:12:04.230Z,2.67
2023-04-21T06:14:31.423Z,3.07
2023-04-21T06:16:58.678Z,2.73
2023-04-21T06:19:25.918Z,2.37
2023-04-21T06:21:53.164Z,2.50
2023-04-21T06:24:25.301Z,2.83
2023-04-21T06:26:53.525Z,2.63
2023-04-21T06:29:21.074Z,2.33
2023-04-21T06:31:48.688Z,3.00
2023-04-21T06:34:16.287Z,2.57
2023-04-21T06:36:43.533Z,3.07
2023-04-21T06:39:10.946Z,2.60
2023-04-21T06:41:38.230Z,3.80
2023-04-21T06:44:05.613Z,3.27
2023-04-21T06:46:32.926Z,3.03
2023-04-21T06:49:00.160Z,2.80
2023-04-21T06:51:27.748Z,2.73
2023-04-21T06:53:54.905Z,3.00
2023-04-21T06:56:22.098Z,2.70
2023-04-21T06:58:49.323Z,2.17
2023-04-21T07:01:16.568Z,2.40
2023-04-21T07:03:43.919Z,2.20
2023-04-21T07:06:11.354Z,2.67
2023-04-21T07:08:38.611Z,2.50
2023-04-21T07:11:05.911Z,2.10
2023-04-21T07:13:33.154Z,1.83
2023-04-21T07:16:00.402Z,2.30
2023-04-21T07:18:27.602Z,2.53
2023-04-21T07:20:54.805Z,2.20
2023-04-21T07:23:21.985Z,3.13
2023-04-21T07:25:49.308Z,2.73
2023-04-21T07:28:16.602Z,2.27
2023-04-21T07:30:43.973Z,2.00
2023-04-21T07:33:11.185Z,2.07
2023-04-21T07:35:38.400Z,1.90
2023-04-21T07:38:05.577Z,1.97
2023-04-21T07:40:32.880Z,2.77
2023-04-21T07:43:00.289Z,2.67
2023-04-21T07:45:27.540Z,2.17
2023-04-21T07:47:54.823Z,2.20
2023-04-21T07:50:22.113Z,2.17
2023-04-21T07:52:48.885Z,2.20
2023-04-21T07:55:16.150Z,2.10
2023-04-21T07:57:43.399Z,2.40
2023-04-21T08:00:11.463Z,2.63
2023-04-21T08:02:38.879Z,2.20
2023-04-21T08:05:06.390Z,1.90
2023-04-21T08:07:33.664Z,2.03
2023-04-21T08:10:01.144Z,2.10
2023-04-21T08:12:28.333Z,2.03
2023-04-21T08:14:58.489Z,2.13
2023-04-21T08:17:25.839Z,1.90
2023-04-21T08:19:53.179Z,2.10
2023-04-21T08:22:20.621Z,2.07
2023-04-21T08:24:47.836Z,1.83
2023-04-21T08:27:15.071Z,2.40
2023-04-21T08:29:42.284Z,1.87
2023-04-21T08:32:09.576Z,1.87
2023-04-21T08:34:37.020Z,2.00
2023-04-21T08:37:04.276Z,1.70
2023-04-21T08:39:31.484Z,2.00
2023-04-21T08:41:59.455Z,1.87
2023-04-21T08:44:26.954Z,1.70
2023-04-21T08:46:56.680Z,1.70
2023-04-21T08:49:25.675Z,2.10
2023-04-21T08:51:52.901Z,2.57
2023-04-21T08:54:20.327Z,2.13
2023-04-21T08:56:48.990Z,1.57
2023-04-21T08:59:16.505Z,1.80
2023-04-21T09:02:10.038Z,1.80
2023-04-21T09:04:42.276Z,1.90
2023-04-21T09:07:10.262Z,2.23
2023-04-21T09:10:04.357Z,2.30
2023-04-21T09:12:31.599Z,1.93
2023-04-21T09:14:59.134Z,1.97
2023-04-21T09:17:32.781Z,2.17
2023-04-21T09:20:17.740Z,1.57
2023-04-21T09:22:45.413Z,1.93
2023-04-21T09:25:17.825Z,1.90
2023-04-21T09:27:45.074Z,2.00
2023-04-21T09:30:12.185Z,1.90
2023-04-21T09:32:42.223Z,1.80
2023-04-21T09:35:12.465Z,1.70
2023-04-21T09:37:39.956Z,2.07
2023-04-21T09:40:07.366Z,1.70
2023-04-21T09:42:39.113Z,1.90
2023-04-21T09:45:32.493Z,2.00
2023-04-21T09:48:00.675Z,1.83
2023-04-21T09:51:07.117Z,1.93
2023-04-21T09:53:17.142Z,2.10
2023-04-21T09:55:48.428Z,1.97
2023-04-21T09:58:19.325Z,1.70
2023-04-21T10:00:46.936Z,1.53
2023-04-21T10:03:16.912Z,1.83
2023-04-21T10:05:44.327Z,1.90
2023-04-21T10:08:12.226Z,1.47
2023-04-21T10:10:39.716Z,2.20
2023-04-21T10:13:07.418Z,1.97
2023-04-21T10:15:41.871Z,1.90
2023-04-21T10:18:29.423Z,1.87
2023-04-21T10:21:02.867Z,1.90
2023-04-21T10:23:31.667Z,1.87
2023-04-21T10:26:14.131Z,1.80
2023-04-21T10:28:41.675Z,1.83
2023-04-21T10:31:38.261Z,1.40
2023-04-21T10:34:08.075Z,1.77
2023-04-21T10:36:42.556Z,1.90
2023-04-21T10:39:12.982Z,1.70
2023-04-21T10:41:40.507Z,1.43
2023-04-21T10:44:10.103Z,1.77
2023-04-21T10:46:41.295Z,1.80
2023-04-21T10:49:25.601Z,1.30
2023-04-21T10:52:02.624Z,1.63
2023-04-21T10:54:46.046Z,2.03
2023-04-21T10:57:20.662Z,1.77
2023-04-21T10:59:49.494Z,1.60
2023-04-21T11:02:19.920Z,1.83
2023-04-21T11:04:51.578Z,2.40
2023-04-21T11:07:23.817Z,1.50
2023-04-21T11:10:01.993Z,1.70
2023-04-21T11:12:34.591Z,1.57
2023-04-21T11:15:07.445Z,1.37
2023-04-21T11:17:35.093Z,1.30
2023-04-21T11:20:04.557Z,1.80
2023-04-21T11:22:31.746Z,1.90
2023-04-21T11:24:59.838Z,1.90
2023-04-21T11:27:28.820Z,1.60
2023-04-21T11:29:57.256Z,1.63
2023-04-21T11:32:24.936Z,1.73
2023-04-21T11:34:52.364Z,1.77
2023-04-21T11:37:27.767Z,1.77
2023-04-21T11:39:59.593Z,2.50
2023-04-21T11:42:27.094Z,1.87
2023-04-21T11:44:57.477Z,2.00
2023-04-21T11:47:28.834Z,2.57
2023-04-21T11:49:58.229Z,1.47
2023-04-21T11:52:32.857Z,2.10
2023-04-21T11:55:06.231Z,1.80
2023-04-21T11:57:34.046Z,1.60
2023-04-21T12:00:02.675Z,2.10
2023-04-21T12:02:33.883Z,1.67
2023-04-21T12:05:12.152Z,1.50
2023-04-21T12:07:48.828Z,1.70
2023-04-21T12:10:21.166Z,1.57
2023-04-21T12:12:48.817Z,1.40
2023-04-21T12:15:21.509Z,1.60
2023-04-21T12:17:50.868Z,1.30
2023-04-21T12:20:23.319Z,1.43
2023-04-21T12:22:50.650Z,1.40
2023-04-21T12:25:17.580Z,1.47
2023-04-21T12:27:52.117Z,1.83
2023-04-21T12:30:19.776Z,1.23
2023-04-21T12:32:54.555Z,1.40
2023-04-21T12:35:23.404Z,1.67
2023-04-21T12:37:51.075Z,1.93
2023-04-21T12:40:18.282Z,1.03
2023-04-21T12:42:45.451Z,1.40
2023-04-21T12:45:13.535Z,1.20
2023-04-21T12:47:42.991Z,1.53
2023-04-21T12:50:12.693Z,1.87
2023-04-21T12:52:39.893Z,1.60
2023-04-21T12:55:07.159Z,1.23
2023-04-21T12:57:34.389Z,1.50
2023-04-21T13:00:01.671Z,1.60
2023-04-21T13:02:30.935Z,1.40
2023-04-21T13:04:58.311Z,1.60
2023-04-21T13:07:27.045Z,1.20
2023-04-21T13:09:54.287Z,1.50
2023-04-21T13:12:21.473Z,1.50
2023-04-21T13:14:48.729Z,1.60
2023-04-21T13:17:16.394Z,1.47
2023-04-21T13:19:43.846Z,1.70
2023-04-21T13:22:11.080Z,1.27
2023-04-21T13:24:38.259Z,1.60
2023-04-21T13:27:05.548Z,1.30
2023-04-21T13:29:34.568Z,3.67
2023-04-21T13:32:06.419Z,1.50
2023-04-21T13:34:34.157Z,1.53
2023-04-21T13:37:02.102Z,1.30
2023-04-21T13:39:29.494Z,1.40
2023-04-21T13:41:56.832Z,1.57
2023-04-21T13:44:24.150Z,1.73
2023-04-21T13:46:53.965Z,1.37
2023-04-21T13:49:21.212Z,1.50
2023-04-21T13:51:48.426Z,1.50
2023-04-21T13:54:15.653Z,1.10
2023-04-21T13:56:43.070Z,1.10
2023-04-21T13:59:10.970Z,1.40
2023-04-21T14:01:38.374Z,1.10
2023-04-21T14:04:05.899Z,1.20
2023-04-21T14:06:33.394Z,1.50
2023-04-21T14:09:00.711Z,1.70
2023-04-21T14:11:28.024Z,1.17
2023-04-21T14:14:08.184Z,1.30
2023-04-21T14:16:36.051Z,1.27
2023-04-21T14:19:03.440Z,1.10
2023-04-21T14:21:31.824Z,1.10
2023-04-21T14:23:59.205Z,1.10
2023-04-21T14:26:26.608Z,1.63
2023-04-21T14:28:53.810Z,1.13
2023-04-21T14:31:22.238Z,1.30
2023-04-21T14:33:49.807Z,1.57
2023-04-21T14:36:17.044Z,1.30
2023-04-21T14:38:44.292Z,1.43
2023-04-21T14:41:11.604Z,1.40
2023-04-21T14:43:38.965Z,1.33
2023-04-21T14:46:06.414Z,1.17
2023-04-21T14:48:33.984Z,1.37
2023-04-21T14:51:01.373Z,1.40
2023-04-21T14:53:28.571Z,1.43
2023-04-21T14:55:55.900Z,1.30
2023-04-21T14:58:23.389Z,1.00
2023-04-21T15:00:51.015Z,1.33
2023-04-21T15:03:18.420Z,1.60
2023-04-21T15:05:45.835Z,1.10
2023-04-21T15:08:15.354Z,1.20
2023-04-21T15:10:42.637Z,1.30
2023-04-21T15:13:09.963Z,1.17
2023-04-21T15:15:37.188Z,1.20
2023-04-21T15:18:04.243Z,1.30
2023-04-21T15:20:43.665Z,1.30
2023-04-21T15:23:14.769Z,1.50
2023-04-21T15:25:42.870Z,1.30
2023-04-21T15:28:10.221Z,1.03
2023-04-21T15:30:37.558Z,1.10
2023-04-21T15:33:04.913Z,1.30
2023-04-21T15:35:32.294Z,3.13
2023-04-21T15:37:59.658Z,1.60
2023-04-21T15:40:27.336Z,1.00
2023-04-21T15:42:54.613Z,0.90
2023-04-21T15:45:22.067Z,1.03
2023-04-21T15:47:49.263Z,1.30
2023-04-21T15:50:16.734Z,1.30
2023-04-21T15:52:44.411Z,1.47
2023-04-21T15:55:12.172Z,1.20
2023-04-21T15:57:40.066Z,1.30
2023-04-21T16:00:08.062Z,1.50
2023-04-21T16:02:35.470Z,1.10
2023-04-21T16:05:02.986Z,1.33
2023-04-21T16:07:30.576Z,1.83
2023-04-21T16:09:57.905Z,1.67
2023-04-21T16:12:25.449Z,1.63
2023-04-21T16:14:59.558Z,1.50
2023-04-21T16:17:34.212Z,1.17
2023-04-21T16:20:01.706Z,1.20
2023-04-21T16:22:29.274Z,1.10
2023-04-21T16:24:59.264Z,1.33
2023-04-21T16:27:26.790Z,1.43
2023-04-21T16:29:53.645Z,0.97
2023-04-21T16:32:21.076Z,1.27
2023-04-21T16:34:48.354Z,1.10
2023-04-21T16:37:15.794Z,1.27
2023-04-21T16:39:42.837Z,1.20
2023-04-21T16:42:13.426Z,2.63
2023-04-21T16:44:41.060Z,1.57
2023-04-21T16:47:08.660Z,1.43
2023-04-21T16:49:36.091Z,1.60
2023-04-21T16:52:03.354Z,1.57
2023-04-21T16:54:30.525Z,1.30
2023-04-21T16:56:58.292Z,1.80
2023-04-21T16:59:25.813Z,1.63
2023-04-21T17:01:53.328Z,1.30
2023-04-21T17:04:21.067Z,1.53
2023-04-21T17:06:51.359Z,1.17
2023-04-21T17:09:18.532Z,1.50
2023-04-21T17:11:46.081Z,1.43
2023-04-21T17:14:13.269Z,1.17
2023-04-21T17:16:40.772Z,1.67
2023-04-21T17:19:08.039Z,1.30
2023-04-21T17:21:35.920Z,1.43
2023-04-21T17:24:03.129Z,1.23
2023-04-21T17:26:30.420Z,1.53
2023-04-21T17:28:57.604Z,1.63
2023-04-21T17:31:24.978Z,1.50
2023-04-21T17:33:53.321Z,1.37
2023-04-21T17:36:20.634Z,1.20
2023-04-21T17:38:47.842Z,1.50
2023-04-21T17:41:15.066Z,1.60
2023-04-21T17:43:42.228Z,1.20
2023-04-21T17:46:09.487Z,1.30
2023-04-21T17:48:36.749Z,1.90
2023-04-21T17:51:04.165Z,2.17
2023-04-21T17:53:32.134Z,1.70
2023-04-21T17:55:59.484Z,1.30
2023-04-21T17:58:27.131Z,1.43
2023-04-21T18:00:54.421Z,1.87
2023-04-21T18:03:22.240Z,1.40
2023-04-21T18:05:49.677Z,1.53
2023-04-21T18:08:16.884Z,1.47
2023-04-21T18:10:44.148Z,1.40
2023-04-21T18:13:11.323Z,1.40
2023-04-21T18:15:39.116Z,1.10
2023-04-21T18:18:06.495Z,1.40
2023-04-21T18:20:33.806Z,1.30
2023-04-21T18:23:01.218Z,1.60
2023-04-21T18:25:41.307Z,1.30
2023-04-21T18:28:11.487Z,1.80
2023-04-21T18:30:39.482Z,1.67
2023-04-21T18:33:06.842Z,1.60
2023-04-21T18:35:34.299Z,2.00
2023-04-21T18:38:01.727Z,1.43
2023-04-21T18:40:28.990Z,1.60
2023-04-21T18:42:56.404Z,1.90
2023-04-21T18:45:23.593Z,1.50
2023-04-21T18:47:50.801Z,1.30
2023-04-21T18:50:18.125Z,1.53
2023-04-21T18:52:45.309Z,2.00
2023-04-21T18:55:12.597Z,1.27
2023-04-21T18:57:39.780Z,1.93
2023-04-21T19:00:07.426Z,2.33
2023-04-21T19:02:34.865Z,1.70
2023-04-21T19:05:02.406Z,1.40
2023-04-21T19:07:29.309Z,1.70
2023-04-21T19:09:56.467Z,1.67
2023-04-21T19:12:23.680Z,1.67
2023-04-21T19:14:51.553Z,1.50
2023-04-21T19:17:19.033Z,2.10
2023-04-21T19:19:46.227Z,1.80
2023-04-21T19:22:13.478Z,1.43
2023-04-21T19:24:40.801Z,1.50
2023-04-21T19:27:08.106Z,1.77
2023-04-21T19:29:36.943Z,2.07
2023-04-21T19:32:04.497Z,1.70
2023-04-21T19:34:32.189Z,1.60
2023-04-21T19:36:59.533Z,1.50
2023-04-21T19:39:26.384Z,1.70
2023-04-21T19:41:53.576Z,1.43
2023-04-21T19:44:20.733Z,1.97
2023-04-21T19:46:48.348Z,2.00
2023-04-21T19:49:15.819Z,3.03
2023-04-21T19:51:42.987Z,1.80
2023-04-21T19:54:11.888Z,1.43
2023-04-21T19:56:40.026Z,1.67
2023-04-21T19:59:07.582Z,1.83
2023-04-21T20:01:35.228Z,1.77
2023-04-21T20:04:03.748Z,1.73
2023-04-21T20:06:32.077Z,1.70
2023-04-21T20:08:59.338Z,1.60
2023-04-21T20:11:28.964Z,1.60
2023-04-21T20:13:56.525Z,1.90
2023-04-21T20:16:26.295Z,1.60
2023-04-21T20:18:53.967Z,1.70
2023-04-21T20:21:21.677Z,1.83
2023-04-21T20:23:48.842Z,1.60
2023-04-21T20:26:16.560Z,1.77
2023-04-21T20:28:43.792Z,2.00
2023-04-21T20:31:11.218Z,3.20
2023-04-21T20:33:38.090Z,2.10
2023-04-21T20:36:07.418Z,2.00
2023-04-21T20:38:34.971Z,2.00
2023-04-21T20:41:02.566Z,2.37
2023-04-21T20:43:33.190Z,1.83
2023-04-21T20:46:01.689Z,1.80
2023-04-21T20:48:28.881Z,1.80
2023-04-21T20:50:56.408Z,2.17
2023-04-21T20:53:23.886Z,2.37
2023-04-21T20:55:51.209Z,1.83
2023-04-21T20:58:18.489Z,2.43
2023-04-21T21:00:45.798Z,2.17
2023-04-21T21:03:13.741Z,1.70
2023-04-21T21:05:41.439Z,1.93
2023-04-21T21:08:09.091Z,1.90
2023-04-21T21:10:36.508Z,2.10
2023-04-21T21:13:03.855Z,2.07
2023-04-21T21:15:31.184Z,2.10
2023-04-21T21:17:58.897Z,1.80
2023-04-21T21:20:26.351Z,2.40
2023-04-21T21:22:53.570Z,2.07
2023-04-21T21:25:21.266Z,2.20
2023-04-21T21:27:48.492Z,1.77
2023-04-21T21:30:15.769Z,2.10
2023-04-21T21:32:43.027Z,2.03
2023-04-21T21:35:10.628Z,1.90
2023-04-21T21:37:37.942Z,2.00
2023-04-21T21:40:06.164Z,2.10
2023-04-21T21:42:33.357Z,2.30
2023-04-21T21:45:01.080Z,1.90
2023-04-21T21:47:28.512Z,2.00
2023-04-21T21:49:57.829Z,2.03
2023-04-21T21:52:24.859Z,2.40
2023-04-21T21:54:52.665Z,2.10
2023-04-21T21:57:20.033Z,1.80
2023-04-21T21:59:48.364Z,1.90
2023-04-21T22:02:15.942Z,1.90
2023-04-21T22:04:43.886Z,2.00
2023-04-21T22:07:11.130Z,1.80
2023-04-21T22:09:39.958Z,2.47
2023-04-21T22:12:07.477Z,2.20
2023-04-21T22:14:34.651Z,2.33
2023-04-21T22:17:02.951Z,2.13
2023-04-21T22:19:31.171Z,2.00
2023-04-21T22:21:58.471Z,2.50
2023-04-21T22:24:25.732Z,2.20
2023-04-21T22:26:53.306Z,2.13
2023-04-21T22:29:20.974Z,5.30
2023-04-21T22:31:48.438Z,1.80
2023-04-21T22:34:16.789Z,2.20
2023-04-21T22:36:44.136Z,2.50
2023-04-21T22:39:11.682Z,2.20
2023-04-21T22:41:39.259Z,2.10
2023-04-21T22:44:06.482Z,2.30
2023-04-21T22:46:33.946Z,1.90
2023-04-21T22:49:02.415Z,2.10
2023-04-21T22:51:29.868Z,2.23
2023-04-21T22:53:57.214Z,2.17
2023-04-21T22:56:24.520Z,2.20
2023-04-21T22:58:51.988Z,2.10
2023-04-21T23:01:19.318Z,2.30
2023-04-21T23:03:46.621Z,2.20
2023-04-21T23:06:13.936Z,2.37
2023-04-21T23:08:41.179Z,2.07
2023-04-21T23:11:08.605Z,2.30
2023-04-21T23:13:35.874Z,2.20
2023-04-21T23:16:03.227Z,2.13
2023-04-21T23:18:30.518Z,2.10
2023-04-21T23:20:58.608Z,2.03
2023-04-21T23:23:25.826Z,2.20
2023-04-21T23:25:53.148Z,2.10
2023-04-21T23:28:20.541Z,2.33
2023-04-21T23:30:47.821Z,1.90
2023-04-21T23:33:15.112Z,2.10
2023-04-21T23:35:42.516Z,2.40
2023-04-21T23:38:09.690Z,2.20
2023-04-21T23:40:36.901Z,2.40
2023-04-21T23:43:04.004Z,4.07
2023-04-21T23:45:31.248Z,2.20
2023-04-21T23:47:58.434Z,2.00
2023-04-21T23:50:25.737Z,2.20
2023-04-21T23:52:52.909Z,2.30
2023-04-21T23:55:20.171Z,2.47
2023-04-21T23:57:47.359Z,2.23
